createdAt,value
2022-09-20T00:07:27.028Z,13.00
2022-09-20T00:17:28.703Z,13.00
2022-09-20T00:27:31.347Z,12.80
2022-09-20T00:37:33.243Z,12.80
2022-09-20T00:47:38.183Z,12.90
2022-09-20T00:57:40.190Z,12.90
2022-09-20T01:07:44.146Z,12.90
2022-09-20T01:17:50.562Z,12.90
2022-09-20T01:27:54.224Z,12.80
2022-09-20T01:38:04.511Z,12.70
2022-09-20T01:48:24.494Z,12.80
2022-09-20T01:59:22.460Z,12.90
2022-09-20T02:09:41.761Z,12.80
2022-09-20T02:20:17.608Z,12.60
2022-09-20T02:30:44.239Z,12.50
2022-09-20T02:41:00.761Z,12.40
2022-09-20T02:51:25.832Z,12.30
2022-09-20T03:01:44.998Z,12.30
2022-09-20T03:12:05.334Z,12.10
2022-09-20T03:22:47.935Z,12.10
2022-09-20T03:33:13.313Z,12.10
2022-09-20T03:43:24.038Z,12.00
2022-09-20T03:53:46.318Z,12.00
2022-09-20T04:03:59.528Z,11.90
2022-09-20T04:14:18.485Z,11.90
2022-09-20T04:24:38.350Z,11.70
2022-09-20T04:35:21.262Z,11.70
2022-09-20T04:45:42.223Z,11.60
2022-09-20T04:56:03.065Z,11.40
2022-09-20T05:06:15.595Z,11.40
2022-09-20T05:16:58.085Z,11.50
2022-09-20T05:27:09.606Z,11.50
2022-09-20T05:37:26.438Z,11.60
2022-09-20T05:47:48.766Z,11.60
2022-09-20T05:58:28.201Z,11.70
2022-09-20T06:09:00.951Z,11.90
2022-09-20T06:19:17.230Z,12.00
2022-09-20T06:29:34.623Z,12.00
2022-09-20T06:40:21.614Z,12.00
2022-09-20T06:50:23.679Z,12.10
2022-09-20T07:00:25.483Z,12.20
2022-09-20T07:10:28.156Z,12.20
2022-09-20T07:20:29.819Z,12.30
2022-09-20T07:30:31.487Z,12.50
2022-09-20T07:40:33.130Z,12.50
2022-09-20T07:50:35.495Z,12.50
2022-09-20T08:00:37.166Z,12.70
2022-09-20T08:10:41.302Z,13.00
2022-09-20T08:20:42.958Z,13.30
2022-09-20T08:30:44.631Z,13.50
2022-09-20T08:40:48.530Z,13.40
2022-09-20T08:50:50.215Z,13.40
2022-09-20T09:00:52.315Z,13.40
2022-09-20T09:10:56.342Z,13.70
2022-09-20T09:21:02.519Z,13.50
2022-09-20T09:31:22.189Z,13.30
2022-09-20T09:41:35.286Z,13.30
2022-09-20T09:51:37.439Z,13.60
2022-09-20T10:02:04.276Z,13.70
2022-09-20T10:12:27.054Z,13.80
2022-09-20T10:23:06.581Z,14.50
2022-09-20T10:33:37.542Z,14.70
2022-09-20T10:44:05.638Z,14.90
2022-09-20T10:54:23.775Z,14.90
2022-09-20T11:04:50.092Z,15.00
2022-09-20T11:15:00.078Z,15.20
2022-09-20T11:25:21.673Z,15.00
2022-09-20T11:35:42.731Z,15.00
2022-09-20T11:45:47.729Z,15.00
2022-09-20T11:56:13.999Z,14.70
2022-09-20T12:06:30.927Z,14.60
2022-09-20T12:16:44.653Z,15.20
2022-09-20T12:26:47.493Z,15.90
2022-09-20T12:36:55.319Z,15.80
2022-09-20T12:47:11.051Z,16.10
2022-09-20T12:57:32.091Z,16.10
2022-09-20T13:07:43.740Z,15.70
2022-09-20T13:17:51.991Z,15.70
2022-09-20T13:27:57.379Z,15.60
2022-09-20T13:38:01.966Z,15.50
2022-09-20T13:48:03.685Z,15.50
2022-09-20T13:58:32.513Z,15.40
2022-09-20T14:08:45.289Z,15.30
2022-09-20T14:18:48.304Z,15.20
2022-09-20T14:28:50.419Z,15.30
2022-09-20T14:38:59.030Z,15.10
2022-09-20T14:49:25.618Z,14.80
2022-09-20T14:59:35.142Z,14.60
2022-09-20T15:09:37.124Z,14.40
2022-09-20T15:19:38.791Z,14.50
2022-09-20T15:29:40.757Z,14.50
2022-09-20T15:39:42.366Z,14.40
2022-09-20T15:49:46.604Z,14.40
2022-09-20T15:59:50.055Z,14.50
2022-09-20T16:09:53.743Z,14.40
2022-09-20T16:19:55.372Z,14.30
2022-09-20T16:29:57.005Z,14.30
2022-09-20T16:39:59.765Z,14.30
2022-09-20T16:50:02.372Z,14.30
2022-09-20T17:00:04.474Z,14.20
2022-09-20T17:10:06.550Z,14.00
2022-09-20T17:20:08.409Z,14.00
2022-09-20T17:30:10.731Z,13.80
2022-09-20T17:40:12.370Z,13.70
2022-09-20T17:50:15.228Z,13.60
2022-09-20T18:00:16.994Z,13.50
2022-09-20T18:10:18.619Z,13.50
2022-09-20T18:20:20.254Z,13.50
2022-09-20T18:30:21.928Z,13.50
2022-09-20T18:40:23.590Z,13.50
2022-09-20T18:50:26.575Z,13.30
2022-09-20T19:00:28.547Z,13.30
2022-09-20T19:10:43.401Z,13.30
2022-09-20T19:20:57.979Z,13.20
2022-09-20T19:31:00.155Z,13.00
2022-09-20T19:41:20.505Z,13.00
2022-09-20T19:51:22.528Z,12.90
2022-09-20T20:01:25.865Z,12.90
2022-09-20T20:11:44.792Z,12.80
2022-09-20T20:22:00.068Z,12.80
2022-09-20T20:32:02.059Z,12.70
2022-09-20T20:42:06.011Z,12.60
2022-09-20T20:52:08.942Z,12.60
2022-09-20T21:02:10.760Z,12.50
2022-09-20T21:12:13.085Z,12.40
2022-09-20T21:22:14.845Z,12.20
2022-09-20T21:32:16.684Z,12.00
2022-09-20T21:42:18.497Z,11.90
2022-09-20T21:52:20.206Z,11.80
2022-09-20T22:02:21.860Z,11.60
2022-09-20T22:12:24.249Z,11.60
2022-09-20T22:22:27.627Z,11.40
2022-09-20T22:32:29.274Z,11.30
2022-09-20T22:42:30.941Z,11.20
2022-09-20T22:52:32.604Z,11.00
2022-09-20T23:02:37.009Z,10.90
2022-09-20T23:12:38.787Z,10.90
2022-09-20T23:22:40.624Z,10.80
2022-09-20T23:32:42.811Z,10.70
2022-09-20T23:42:44.448Z,10.60
2022-09-20T23:52:46.109Z,10.60
